Decoded Metar for OIAW (AHWAZ in IRAN) (IATA:AWZ) | Meteo·Mobile Aviation Weather
aviador You're here:

OIAW Decoded Metar

AHWAZ in IRAN
Report Time2018-11-18 20:50:00
UTC Time2018-11-18 21:26:07
Flight Rules mvfr MVFR
Wind280° at 04 kt
W.Decomp.*RWY 30: 3.7 kt HW 1.6 kt LCW
W.Rank280° ranks 2
Current wind is below 280° avg. (5.8)
Visibility6000 m
Phenomena:N/A
Clouds:N/A
Expected CloudBase > 1,200 ft AGL from Temp-Dew spread
CeilingNone
Temp16°C (ISA +1)
Dew Point13°C (83% RH)
AAT15.5°C
QNH1017 hPa
Density Alt272 ft
Elevation72 ft
Report Wrong Elevation
Raw Report
METAR OIAW 182050Z 28004KT 6000 NSC 16/13 Q1017=

Extra information for OIAW:More info

Metar Taf Metar & Taf Last 4 Metars F.Rules Stats Wind Profile Meteogram Temp Stats Airport Information Weather charts Add Link Nearby VenuesMetar ALERT Operation Metar Decoded Social comments